Terminal Aerodrome Forecast
Issued by NWS

Home | Current Version | Previous Version | Text Only | Print | Product List | Glossary Off
Versions: 1 2 3 4 5 6 7 8 9 10 11 12 13 14 15 16 17 18 19

548
FTUS43 KMPX 231725
TAFAXN
TAF
KAXN 231725Z 2318/2418 34010KT P6SM BKN035
     FM232200 36009KT P6SM BKN050
     FM240100 07004KT P6SM FEW250
     FM241400 15009KT P6SM SKC=

USA.gov is the U.S. government's official web portal to all federal, state and local government web resources and services.